Time;durP1;ratioP1;P1;durP2;ratioP2;P2;SDS_P1;SDS_P2;PMS_P1;PMS_P2;Temp;Humidity;BMP_temperature;BMP_pressure;BME280_temperature;BME280_humidity;BME280_pressure;Samples;Min_cycle;Max_cycle;Signal;HPM_P1;HPM_P2
2023/08/09 00:00:51;;;;;;;5.32;4.10;;;13.00;99.90;;;;;;5075953;28;20016;-80
2023/08/09 00:03:17;;;;;;;4.20;3.53;;;12.90;99.90;;;;;;5074866;28;20026;-80
2023/08/09 00:05:43;;;;;;;4.97;3.70;;;12.80;99.90;;;;;;5074723;28;20020;-80
2023/08/09 00:08:08;;;;;;;6.05;3.47;;;12.80;99.90;;;;;;5073733;28;20045;-80
2023/08/09 00:10:34;;;;;;;4.28;3.55;;;12.60;99.90;;;;;;5075547;28;20028;-80
2023/08/09 00:13:01;;;;;;;4.03;3.60;;;12.60;99.90;;;;;;5074700;28;20048;-80
2023/08/09 00:15:26;;;;;;;5.07;3.15;;;12.40;99.90;;;;;;5075666;28;20129;-80
2023/08/09 00:17:52;;;;;;;2.83;2.30;;;12.40;99.90;;;;;;5074449;28;20549;-80
2023/08/09 00:20:20;;;;;;;4.68;2.80;;;12.30;99.90;;;;;;5075877;28;20025;-80
2023/08/09 00:22:46;;;;;;;5.00;2.70;;;12.20;99.90;;;;;;5075547;28;20028;-80
2023/08/09 00:25:11;;;;;;;8.38;2.80;;;12.20;99.90;;;;;;5075918;28;20016;-81
2023/08/09 00:27:37;;;;;;;3.88;2.50;;;12.20;99.90;;;;;;5074222;28;20547;-80
2023/08/09 00:30:04;;;;;;;6.35;2.42;;;12.10;99.90;;;;;;5074189;28;20066;-80
2023/08/09 00:32:30;;;;;;;2.78;2.45;;;12.10;99.90;;;;;;5074221;28;20378;-80
2023/08/09 00:34:56;;;;;;;3.25;2.58;;;12.00;99.90;;;;;;5074002;28;20043;-80
2023/08/09 00:37:21;;;;;;;2.92;2.25;;;12.00;99.90;;;;;;5074513;28;20020;-81
2023/08/09 00:39:48;;;;;;;2.50;2.30;;;12.00;99.90;;;;;;5074882;28;20462;-81
2023/08/09 00:42:14;;;;;;;4.28;2.67;;;12.00;99.90;;;;;;5073752;28;20024;-81
2023/08/09 00:44:39;;;;;;;3.88;2.65;;;12.00;99.90;;;;;;5074217;28;20035;-81
2023/08/09 00:47:07;;;;;;;2.75;2.40;;;12.00;99.90;;;;;;5075009;28;20099;-81
2023/08/09 00:49:33;;;;;;;2.60;2.30;;;12.00;99.90;;;;;;5073637;28;20046;-80
2023/08/09 00:51:59;;;;;;;5.53;2.78;;;12.00;99.90;;;;;;5073951;28;20491;-81
2023/08/09 00:54:25;;;;;;;3.17;2.97;;;12.00;99.90;;;;;;5073741;28;20099;-81
2023/08/09 00:56:51;;;;;;;3.58;2.97;;;12.10;99.90;;;;;;5075027;28;20052;-81
2023/08/09 00:59:16;;;;;;;4.10;2.63;;;12.00;99.90;;;;;;5073840;28;20012;-80
2023/08/09 01:01:42;;;;;;;3.03;2.53;;;12.00;99.90;;;;;;5073480;28;20023;-81
2023/08/09 01:04:08;;;;;;;2.63;2.42;;;12.00;99.90;;;;;;5074156;28;20020;-81
2023/08/09 01:06:53;;;;;;;5.18;2.55;;;12.00;99.90;;;;;;5075104;28;20450;-81
2023/08/09 01:09:46;;;;;;;5.43;2.47;;;12.10;99.90;;;;;;5074697;28;20024;-81
2023/08/09 01:12:14;;;;;;;;;;;12.10;99.90;;;;;;5075075;28;20020;-80
2023/08/09 01:14:46;;;;;;;4.10;2.60;;;12.10;99.90;;;;;;5073298;28;19924;-81
2023/08/09 01:17:14;;;;;;;4.65;2.75;;;12.10;99.90;;;;;;5073615;28;20029;-81
2023/08/09 01:19:49;;;;;;;4.13;2.83;;;12.10;99.90;;;;;;5074494;28;20111;-81
2023/08/09 01:22:22;;;;;;;3.75;2.85;;;12.10;99.90;;;;;;5061917;28;20077;-81
2023/08/09 01:24:49;;;;;;;5.07;2.72;;;12.10;99.90;;;;;;5074678;28;20082;-80
2023/08/09 01:27:15;;;;;;;5.40;3.50;;;12.10;99.90;;;;;;5074169;28;20024;-81
2023/08/09 01:29:41;;;;;;;4.13;3.50;;;12.10;99.90;;;;;;5073209;28;20023;-81
2023/08/09 01:32:07;;;;;;;4.28;2.60;;;12.10;99.90;;;;;;5073308;28;20021;-81
2023/08/09 01:34:34;;;;;;;3.58;2.67;;;12.10;99.90;;;;;;5073006;28;20016;-81
2023/08/09 01:37:24;;;;;;;6.00;2.92;;;12.00;99.90;;;;;;5073179;28;20031;-81
2023/08/09 01:39:52;;;;;;;3.28;2.83;;;12.00;99.90;;;;;;5072976;28;20020;-80
2023/08/09 01:42:19;;;;;;;3.53;2.90;;;12.00;99.90;;;;;;5074430;28;20032;-81
2023/08/09 01:44:46;;;;;;;3.63;2.58;;;12.00;99.90;;;;;;5072845;28;20021;-81
2023/08/09 01:47:13;;;;;;;3.33;2.75;;;12.00;99.90;;;;;;5072836;28;20386;-81
2023/08/09 01:49:47;;;;;;;3.13;2.90;;;11.90;99.90;;;;;;5073830;28;20043;-81
2023/08/09 01:52:14;;;;;;;4.80;2.70;;;11.90;99.90;;;;;;5076360;28;20548;-81
2023/08/09 01:54:40;;;;;;;2.85;2.65;;;11.90;99.90;;;;;;5072813;28;20417;-81
2023/08/09 01:57:05;;;;;;;3.65;2.67;;;11.90;99.90;;;;;;5072220;28;20020;-81
2023/08/09 01:59:31;;;;;;;4.55;3.72;;;11.90;99.90;;;;;;5072332;28;20025;-80
2023/08/09 02:01:56;;;;;;;2.95;2.65;;;11.90;99.90;;;;;;5074074;28;20025;-80
2023/08/09 02:04:23;;;;;;;2.67;2.47;;;12.00;99.90;;;;;;5073370;28;20039;-80
2023/08/09 02:06:49;;;;;;;4.05;3.55;;;12.00;99.90;;;;;;5073780;28;20029;-81
2023/08/09 02:09:14;;;;;;;5.45;3.05;;;12.00;99.90;;;;;;5072176;28;20118;-81
2023/08/09 02:11:40;;;;;;;5.75;2.58;;;11.90;99.90;;;;;;5073580;28;20020;-81
2023/08/09 02:14:05;;;;;;;4.93;2.50;;;11.90;99.90;;;;;;5073201;28;20401;-81
2023/08/09 02:16:31;;;;;;;6.88;2.88;;;11.90;99.90;;;;;;5071601;28;20059;-81
2023/08/09 02:18:57;;;;;;;4.40;2.70;;;11.90;99.90;;;;;;5073692;28;20095;-81
2023/08/09 02:21:22;;;;;;;3.03;2.72;;;11.90;99.90;;;;;;5073238;28;20465;-81
2023/08/09 02:23:48;;;;;;;4.72;2.80;;;11.90;99.90;;;;;;5073502;28;20435;-81
2023/08/09 02:26:15;;;;;;;4.28;3.00;;;11.90;99.90;;;;;;5071951;28;20104;-80
2023/08/09 02:28:41;;;;;;;5.80;2.75;;;12.00;99.90;;;;;;5072098;28;20021;-81
2023/08/09 02:31:08;;;;;;;4.63;2.90;;;11.90;99.90;;;;;;5071982;28;20021;-81
2023/08/09 02:33:34;;;;;;;3.20;2.60;;;11.90;99.90;;;;;;5072488;28;20474;-80
2023/08/09 02:36:02;;;;;;;3.88;2.42;;;11.90;99.90;;;;;;5072406;28;20087;-81
2023/08/09 02:38:28;;;;;;;3.22;2.75;;;11.90;99.90;;;;;;5071855;28;20130;-80
2023/08/09 02:40:55;;;;;;;5.50;2.70;;;11.90;99.90;;;;;;5073011;28;20121;-80
2023/08/09 02:43:25;;;;;;;6.03;2.63;;;11.90;99.90;;;;;;5073111;28;20059;-81
2023/08/09 02:45:52;;;;;;;6.03;3.00;;;11.90;99.90;;;;;;5072954;28;20112;-81
2023/08/09 02:48:18;;;;;;;3.30;2.88;;;11.80;99.90;;;;;;5071697;28;20021;-81
2023/08/09 02:50:44;;;;;;;8.40;2.70;;;11.80;99.90;;;;;;5071473;28;20031;-81
2023/08/09 02:53:10;;;;;;;4.20;3.00;;;11.80;99.90;;;;;;5072652;28;20116;-81
2023/08/09 02:55:36;;;;;;;3.75;2.70;;;11.80;99.90;;;;;;5071541;28;20055;-80
2023/08/09 02:58:04;;;;;;;3.13;2.83;;;11.80;99.90;;;;;;5071635;28;20048;-81
2023/08/09 03:00:30;;;;;;;3.65;3.00;;;11.70;99.90;;;;;;5071694;28;20025;-80
2023/08/09 03:02:58;;;;;;;3.55;2.90;;;11.70;99.90;;;;;;5072734;28;20086;-81
2023/08/09 03:05:24;;;;;;;4.32;3.10;;;11.70;99.90;;;;;;5072789;28;20016;-81
2023/08/09 03:07:49;;;;;;;5.18;2.90;;;11.70;99.90;;;;;;5071406;28;20033;-81
2023/08/09 03:10:15;;;;;;;4.78;3.10;;;11.70;99.90;;;;;;5072875;28;20489;-80
2023/08/09 03:12:41;;;;;;;10.45;3.60;;;11.60;99.90;;;;;;5062990;28;20036;-81
2023/08/09 03:15:07;;;;;;;4.57;3.17;;;11.60;99.90;;;;;;5072158;28;20051;-81
2023/08/09 03:17:33;;;;;;;3.47;3.17;;;11.60;99.90;;;;;;5072739;28;20016;-81
2023/08/09 03:19:58;;;;;;;4.38;3.97;;;11.60;99.90;;;;;;5071355;28;20063;-81
2023/08/09 03:22:24;;;;;;;7.68;3.60;;;11.60;99.90;;;;;;5072287;28;20054;-81
2023/08/09 03:24:50;;;;;;;4.43;3.25;;;11.60;99.90;;;;;;5072611;28;20462;-81
2023/08/09 03:27:16;;;;;;;5.40;3.28;;;11.60;99.90;;;;;;5071082;28;20410;-81
2023/08/09 03:29:43;;;;;;;4.32;3.10;;;11.60;99.90;;;;;;5070835;28;20028;-81
2023/08/09 03:32:08;;;;;;;4.43;3.80;;;11.50;99.90;;;;;;5071384;28;20138;-81
2023/08/09 03:34:34;;;;;;;3.42;2.95;;;11.50;99.90;;;;;;5070956;28;20413;-81
2023/08/09 03:37:00;;;;;;;4.95;3.15;;;11.50;99.90;;;;;;5072651;28;20041;-81
2023/08/09 03:39:26;;;;;;;4.97;4.03;;;11.50;99.90;;;;;;5057284;28;20381;-81
2023/08/09 03:41:52;;;;;;;7.07;3.53;;;11.40;99.90;;;;;;5071129;28;20016;-81
2023/08/09 03:44:17;;;;;;;4.20;2.83;;;11.40;99.90;;;;;;5071035;28;20025;-81
2023/08/09 03:46:43;;;;;;;6.78;3.25;;;11.40;99.90;;;;;;5072624;28;20066;-80
2023/08/09 03:49:09;;;;;;;4.47;2.92;;;11.40;99.90;;;;;;5057188;28;20017;-81
2023/08/09 03:51:34;;;;;;;6.80;3.70;;;11.40;99.90;;;;;;5072573;28;20394;-81
2023/08/09 03:54:00;;;;;;;4.22;3.20;;;11.40;99.90;;;;;;5070915;28;20025;-81
2023/08/09 03:56:26;;;;;;;5.05;3.28;;;11.40;99.90;;;;;;5072950;28;20394;-81
2023/08/09 03:58:52;;;;;;;4.55;3.47;;;11.40;99.90;;;;;;5071461;28;20013;-81
2023/08/09 04:01:18;;;;;;;4.25;2.95;;;11.40;99.90;;;;;;5072391;28;20023;-81
2023/08/09 04:03:43;;;;;;;5.20;3.25;;;11.40;99.90;;;;;;5072408;28;20466;-81
2023/08/09 04:06:10;;;;;;;6.25;3.30;;;11.40;99.90;;;;;;5070739;28;20108;-81
2023/08/09 04:08:37;;;;;;;5.35;3.45;;;11.40;99.90;;;;;;5072223;28;20028;-81
2023/08/09 04:11:04;;;;;;;7.00;3.13;;;11.40;99.90;;;;;;5070479;28;20492;-81
2023/08/09 04:13:30;;;;;;;5.00;3.58;;;11.40;99.90;;;;;;5072062;28;20070;-81
2023/08/09 04:15:55;;;;;;;7.30;3.97;;;11.30;99.90;;;;;;5071888;28;20091;-81
2023/08/09 04:18:21;;;;;;;4.75;4.00;;;11.30;99.90;;;;;;5071896;28;20021;-81
2023/08/09 04:20:47;;;;;;;4.63;3.42;;;11.30;99.90;;;;;;5071828;28;20504;-81
2023/08/09 04:23:13;;;;;;;5.35;3.60;;;11.40;99.90;;;;;;5072024;28;20107;-82
2023/08/09 04:25:38;;;;;;;4.13;3.72;;;11.40;99.90;;;;;;5072057;28;20052;-81
2023/08/09 04:28:05;;;;;;;6.32;3.50;;;11.50;99.90;;;;;;5076073;28;20521;-81
2023/08/09 04:30:30;;;;;;;4.43;4.00;;;11.50;99.90;;;;;;5070694;28;20020;-81
2023/08/09 04:32:56;;;;;;;3.70;3.30;;;11.50;99.90;;;;;;5058440;28;20036;-82
2023/08/09 04:35:23;;;;;;;4.18;3.45;;;11.50;99.90;;;;;;5070682;28;20550;-82
2023/08/09 04:37:48;;;;;;;7.68;3.88;;;11.50;99.90;;;;;;5070828;28;20020;-81
2023/08/09 04:40:14;;;;;;;5.13;3.72;;;11.60;99.90;;;;;;5074582;28;20024;-82
2023/08/09 04:42:41;;;;;;;5.07;3.75;;;11.60;99.90;;;;;;5074982;28;20444;-82
2023/08/09 04:45:12;;;;;;;6.95;4.07;;;11.60;99.90;;;;;;5073819;28;20074;-81
2023/08/09 04:47:39;;;;;;;7.30;4.13;;;11.70;99.90;;;;;;5074854;28;20043;-82
2023/08/09 04:50:05;;;;;;;8.70;4.70;;;11.70;99.90;;;;;;5069054;28;20063;-82
2023/08/09 04:52:33;;;;;;;6.28;4.72;;;11.80;99.90;;;;;;5070820;28;20028;-81
2023/08/09 04:54:59;;;;;;;8.40;4.10;;;11.80;99.90;;;;;;5074971;28;20103;-82
2023/08/09 04:57:24;;;;;;;8.90;5.40;;;11.90;99.90;;;;;;5074992;28;20546;-82
2023/08/09 04:59:50;;;;;;;6.43;4.05;;;12.00;99.90;;;;;;5065386;28;20047;-82
2023/08/09 05:02:16;;;;;;;11.80;5.18;;;12.10;99.90;;;;;;5074875;28;20078;-81
2023/08/09 05:04:41;;;;;;;11.63;5.47;;;12.20;99.90;;;;;;5073913;28;20024;-82
2023/08/09 05:07:07;;;;;;;10.13;5.15;;;12.30;99.90;;;;;;5073542;28;20024;-82
2023/08/09 05:09:32;;;;;;;12.80;5.53;;;12.40;99.90;;;;;;5073860;28;20086;-82
2023/08/09 05:11:58;;;;;;;12.55;5.40;;;12.50;99.90;;;;;;5074774;28;20025;-82
2023/08/09 05:14:25;;;;;;;10.27;5.38;;;12.70;99.90;;;;;;5074079;28;20040;-82
2023/08/09 05:16:51;;;;;;;9.07;4.78;;;12.80;99.90;;;;;;5074950;28;20119;-82
2023/08/09 05:19:18;;;;;;;13.07;5.22;;;12.90;99.90;;;;;;5073460;28;20020;-82
2023/08/09 05:21:43;;;;;;;10.50;4.78;;;13.00;99.90;;;;;;5073243;28;20021;-82
2023/08/09 05:24:09;;;;;;;7.55;4.80;;;13.10;99.90;;;;;;5067927;28;20498;-82
2023/08/09 05:26:35;;;;;;;10.30;5.07;;;13.20;99.90;;;;;;5066471;28;20450;-82
2023/08/09 05:29:00;;;;;;;11.52;4.82;;;13.30;99.90;;;;;;5074965;28;20033;-82
2023/08/09 05:31:26;;;;;;;12.73;5.25;;;13.30;99.90;;;;;;5077642;28;20062;-83
2023/08/09 05:33:52;;;;;;;7.63;4.72;;;13.40;99.90;;;;;;5073302;28;20024;-82
2023/08/09 05:36:18;;;;;;;9.77;5.10;;;13.50;99.90;;;;;;5074024;28;20047;-82
2023/08/09 05:38:44;;;;;;;12.88;4.57;;;13.60;99.90;;;;;;5074390;28;20091;-82
2023/08/09 05:41:09;;;;;;;8.32;3.83;;;13.60;99.90;;;;;;5074586;28;20032;-82
2023/08/09 05:43:35;;;;;;;7.22;4.30;;;13.70;99.90;;;;;;5072823;28;20059;-82
2023/08/09 05:46:00;;;;;;;8.55;4.82;;;13.70;99.90;;;;;;5074370;28;20017;-82
2023/08/09 05:48:26;;;;;;;9.40;5.15;;;13.80;99.90;;;;;;5074062;28;20017;-81
2023/08/09 05:50:52;;;;;;;8.18;4.53;;;13.90;99.90;;;;;;5073945;28;20023;-82
2023/08/09 05:53:18;;;;;;;7.88;4.18;;;13.90;99.90;;;;;;5074239;28;20027;-82
2023/08/09 05:55:44;;;;;;;9.00;4.63;;;14.00;99.90;;;;;;5072159;28;20452;-82
2023/08/09 05:58:10;;;;;;;8.38;4.28;;;14.10;99.90;;;;;;5070667;28;20496;-82
2023/08/09 06:00:37;;;;;;;5.47;3.33;;;14.20;99.90;;;;;;5073268;28;20032;-82
2023/08/09 06:03:03;;;;;;;6.63;4.25;;;14.20;99.90;;;;;;5072656;28;20389;-82
2023/08/09 06:05:28;;;;;;;4.70;3.63;;;14.30;99.90;;;;;;5072448;28;20028;-81
2023/08/09 06:07:55;;;;;;;5.22;3.38;;;14.50;99.90;;;;;;5072613;28;20017;-82
2023/08/09 06:10:22;;;;;;;13.13;4.78;;;14.60;99.90;;;;;;5078103;28;20013;-83
2023/08/09 06:12:49;;;;;;;8.18;3.80;;;14.70;99.90;;;;;;5072665;28;20237;-82
2023/08/09 06:15:16;;;;;;;8.32;3.72;;;14.90;99.90;;;;;;5073579;28;20137;-82
2023/08/09 06:17:41;;;;;;;5.82;3.70;;;14.90;99.90;;;;;;5073648;28;20021;-82
2023/08/09 06:20:08;;;;;;;4.45;3.50;;;15.00;99.90;;;;;;5072201;28;20021;-82
2023/08/09 06:22:33;;;;;;;8.10;4.18;;;15.20;99.90;;;;;;5072199;28;20020;-82
2023/08/09 06:24:59;;;;;;;6.88;4.13;;;15.20;99.90;;;;;;5073646;28;20024;-82
2023/08/09 06:27:25;;;;;;;7.70;4.13;;;15.30;99.90;;;;;;5072024;28;20028;-83
2023/08/09 06:29:51;;;;;;;12.80;4.15;;;15.40;99.90;;;;;;5072976;28;20027;-82
2023/08/09 06:32:16;;;;;;;7.55;3.83;;;15.60;99.90;;;;;;5072626;28;20031;-82
2023/08/09 06:34:42;;;;;;;7.13;3.40;;;15.80;99.90;;;;;;5072133;28;20028;-82
2023/08/09 06:37:08;;;;;;;6.03;3.95;;;16.00;99.90;;;;;;5071401;28;20036;-82
2023/08/09 06:39:34;;;;;;;5.60;3.55;;;16.30;99.90;;;;;;5073323;28;20484;-82
2023/08/09 06:42:01;;;;;;;6.53;3.50;;;16.60;99.90;;;;;;5072111;28;20386;-83
2023/08/09 06:44:26;;;;;;;4.38;3.28;;;16.80;99.90;;;;;;5070420;28;20038;-82
2023/08/09 06:46:53;;;;;;;5.35;3.55;;;17.00;99.90;;;;;;5072323;28;20469;-82
2023/08/09 06:49:21;;;;;;;5.30;3.00;;;17.20;99.90;;;;;;5072744;28;20021;-83
2023/08/09 06:51:47;;;;;;;6.10;2.88;;;17.40;99.90;;;;;;5063548;28;20032;-82
2023/08/09 06:54:13;;;;;;;4.50;2.78;;;17.70;99.90;;;;;;5072856;28;20028;-82
2023/08/09 06:56:38;;;;;;;6.07;2.55;;;18.00;99.90;;;;;;5072062;28;20036;-83
2023/08/09 06:59:04;;;;;;;5.50;3.00;;;18.20;97.30;;;;;;5075299;28;20063;-82
2023/08/09 07:01:30;;;;;;;5.18;2.33;;;18.40;95.40;;;;;;5070903;28;20066;-82
2023/08/09 07:03:56;;;;;;;9.93;7.07;;;18.60;95.00;;;;;;5071301;28;21324;-84
2023/08/09 07:06:23;;;;;;;4.05;2.13;;;18.80;91.90;;;;;;5069588;28;20116;-82
2023/08/09 07:08:48;;;;;;;4.72;2.17;;;18.70;87.60;;;;;;5070116;28;20034;-82
2023/08/09 07:11:14;;;;;;;3.67;1.90;;;18.80;87.70;;;;;;5071072;28;20448;-83
2023/08/09 07:13:40;;;;;;;5.70;1.80;;;18.70;83.30;;;;;;5072175;28;20090;-82
2023/08/09 07:16:05;;;;;;;2.83;2.38;;;18.60;81.50;;;;;;5070680;28;20036;-82
2023/08/09 07:18:31;;;;;;;1.83;1.58;;;18.60;83.60;;;;;;5071283;28;20020;-83
2023/08/09 07:20:57;;;;;;;3.15;2.10;;;18.50;87.70;;;;;;5072389;28;20025;-83
2023/08/09 07:23:24;;;;;;;3.10;2.10;;;18.30;85.70;;;;;;5070640;28;20069;-83
2023/08/09 07:25:50;;;;;;;2.17;1.98;;;18.10;85.60;;;;;;5070448;28;20107;-82
2023/08/09 07:28:15;;;;;;;4.50;2.50;;;18.00;88.60;;;;;;5069222;28;20408;-82
2023/08/09 07:30:41;;;;;;;4.90;2.88;;;17.90;90.90;;;;;;5069368;28;20057;-82
2023/08/09 07:33:07;;;;;;;2.65;1.90;;;17.90;92.80;;;;;;5068807;28;20021;-82
2023/08/09 07:35:32;;;;;;;3.40;1.90;;;17.80;91.10;;;;;;5070140;28;20041;-82
2023/08/09 07:37:58;;;;;;;3.38;1.83;;;17.90;88.10;;;;;;5069147;28;20032;-82
2023/08/09 07:40:24;;;;;;;3.25;1.80;;;18.00;87.40;;;;;;5069534;28;20032;-83
2023/08/09 07:42:49;;;;;;;2.42;1.83;;;18.00;88.50;;;;;;5070960;28;20492;-83
2023/08/09 07:45:15;;;;;;;2.28;1.98;;;18.00;86.90;;;;;;5070443;28;20032;-82
2023/08/09 07:47:41;;;;;;;4.20;1.92;;;18.00;85.50;;;;;;5070786;28;20103;-83
2023/08/09 07:50:08;;;;;;;3.17;2.05;;;17.90;87.30;;;;;;5070589;28;20024;-83
2023/08/09 07:52:34;;;;;;;3.92;1.90;;;18.20;86.20;;;;;;5071853;28;20027;-83
2023/08/09 07:55:00;;;;;;;1.90;1.80;;;18.60;85.80;;;;;;5070458;28;20024;-82
2023/08/09 07:57:25;;;;;;;1.95;1.75;;;18.80;80.80;;;;;;5070452;28;20038;-82
2023/08/09 07:59:51;;;;;;;5.07;1.98;;;19.00;78.20;;;;;;5070467;28;20043;-82
2023/08/09 08:02:17;;;;;;;2.70;1.70;;;19.20;77.20;;;;;;5072029;28;20024;-82
2023/08/09 08:04:42;;;;;;;3.38;2.15;;;19.40;76.50;;;;;;5070662;28;20116;-82
2023/08/09 08:07:09;;;;;;;1.98;1.80;;;19.70;77.00;;;;;;5070923;28;20036;-82
2023/08/09 08:09:41;;;;;;;3.05;2.08;;;19.60;77.10;;;;;;5069622;28;20500;-82
2023/08/09 08:12:08;;;;;;;4.22;1.65;;;19.80;75.50;;;;;;5070756;28;20501;-83
2023/08/09 08:14:37;;;;;;;3.10;1.73;;;20.00;73.70;;;;;;5072044;28;20071;-82
2023/08/09 08:17:03;;;;;;;1.50;1.40;;;19.90;71.40;;;;;;5074716;28;20033;-83
2023/08/09 08:19:29;;;;;;;2.22;2.00;;;19.90;70.10;;;;;;5078597;28;20027;-84
2023/08/09 08:21:55;;;;;;;2.83;1.55;;;19.90;69.60;;;;;;5074521;28;20027;-82
2023/08/09 08:24:20;;;;;;;3.67;1.85;;;20.00;71.00;;;;;;5073271;28;20024;-82
2023/08/09 08:26:46;;;;;;;3.05;2.15;;;20.10;72.00;;;;;;5073912;28;20020;-82
2023/08/09 08:29:12;;;;;;;3.80;1.98;;;20.10;70.20;;;;;;5075224;28;20029;-82
2023/08/09 08:31:38;;;;;;;3.08;1.95;;;20.00;68.80;;;;;;5074619;28;20066;-83
2023/08/09 08:34:05;;;;;;;5.03;1.80;;;19.90;70.30;;;;;;5074704;28;20025;-82
2023/08/09 08:36:30;;;;;;;1.63;1.52;;;20.00;71.40;;;;;;5075148;28;20074;-83
2023/08/09 08:38:57;;;;;;;3.38;2.15;;;20.00;71.00;;;;;;5074199;28;20012;-83
2023/08/09 08:41:23;;;;;;;1.92;1.80;;;20.00;70.90;;;;;;5074664;28;20501;-83
2023/08/09 08:43:49;;;;;;;2.92;1.75;;;20.10;71.50;;;;;;5073828;28;20028;-83
2023/08/09 08:46:18;;;;;;;3.03;1.73;;;20.20;71.00;;;;;;5073561;28;20024;-83
2023/08/09 08:48:48;;;;;;;2.05;1.83;;;20.30;70.60;;;;;;5075064;28;20016;-83
2023/08/09 08:51:14;;;;;;;2.85;1.63;;;20.40;67.10;;;;;;5074860;28;20021;-83
2023/08/09 08:53:40;;;;;;;1.80;1.70;;;20.50;70.60;;;;;;5071223;28;20033;-82
2023/08/09 08:56:06;;;;;;;2.00;1.60;;;20.40;69.50;;;;;;5074254;28;20063;-83
2023/08/09 08:58:32;;;;;;;3.75;2.08;;;20.30;70.00;;;;;;5068520;28;20048;-82
2023/08/09 09:00:58;;;;;;;3.45;1.60;;;20.20;68.10;;;;;;5072437;28;20347;-81
2023/08/09 09:03:24;;;;;;;2.67;1.88;;;20.10;70.60;;;;;;5072200;28;20497;-81
2023/08/09 09:05:50;;;;;;;5.07;1.73;;;20.10;70.00;;;;;;5073106;28;20023;-81
2023/08/09 09:08:16;;;;;;;2.78;1.80;;;20.10;68.80;;;;;;5071947;28;20025;-82
2023/08/09 09:10:45;;;;;;;2.42;1.88;;;20.00;69.50;;;;;;5071993;28;20036;-81
2023/08/09 09:13:31;;;;;;;2.83;2.15;;;20.20;70.00;;;;;;5071546;28;20044;-81
2023/08/09 09:15:58;;;;;;;3.60;1.92;;;20.10;69.60;;;;;;5072938;28;20094;-82
2023/08/09 09:18:23;;;;;;;5.63;1.70;;;20.10;69.30;;;;;;5072393;28;20090;-83
2023/08/09 09:20:49;;;;;;;2.35;1.75;;;20.20;71.50;;;;;;5072981;28;20103;-82
2023/08/09 09:23:30;;;;;;;1.92;1.80;;;20.10;70.00;;;;;;5073324;28;20162;-83
2023/08/09 09:26:05;;;;;;;3.97;1.70;;;20.40;71.50;;;;;;5071802;28;20099;-82
2023/08/09 09:28:38;;;;;;;2.85;1.42;;;20.50;70.70;;;;;;5073231;28;20432;-83
2023/08/09 09:31:04;;;;;;;1.80;1.70;;;20.60;69.50;;;;;;5068930;28;20028;-83
2023/08/09 09:33:34;;;;;;;3.38;1.85;;;20.80;72.80;;;;;;5072217;28;20036;-83
2023/08/09 09:36:01;;;;;;;3.33;2.15;;;20.80;71.20;;;;;;5071670;28;20028;-83
2023/08/09 09:38:27;;;;;;;3.53;1.70;;;20.90;71.80;;;;;;5070809;28;20036;-82
2023/08/09 09:40:53;;;;;;;2.20;1.98;;;20.90;72.10;;;;;;5071668;28;20086;-82
2023/08/09 09:43:18;;;;;;;2.45;1.75;;;20.60;69.60;;;;;;5067884;28;20537;-82
2023/08/09 09:45:44;;;;;;;3.08;2.10;;;20.50;68.70;;;;;;5069515;28;20110;-82
2023/08/09 09:48:20;;;;;;;4.57;2.00;;;20.30;69.90;;;;;;5070808;28;20124;-82
2023/08/09 09:50:47;;;;;;;3.70;1.95;;;20.10;71.20;;;;;;5071407;28;20027;-82
2023/08/09 09:53:15;;;;;;;2.13;1.55;;;19.90;70.70;;;;;;5069779;28;20032;-82
2023/08/09 09:55:41;;;;;;;3.95;1.50;;;19.70;68.80;;;;;;5070112;28;20130;-82
2023/08/09 09:58:07;;;;;;;1.63;1.48;;;19.70;69.70;;;;;;5071550;28;20103;-83
2023/08/09 10:00:33;;;;;;;3.33;1.60;;;19.50;69.80;;;;;;5071954;28;20159;-82
2023/08/09 10:03:04;;;;;;;2.63;2.08;;;19.50;71.30;;;;;;5071513;28;20107;-82
2023/08/09 10:05:35;;;;;;;1.60;1.35;;;19.40;70.60;;;;;;5069143;28;20500;-82
2023/08/09 10:08:07;;;;;;;2.08;1.70;;;19.40;69.40;;;;;;5071706;28;20021;-83
2023/08/09 10:10:35;;;;;;;5.80;2.47;;;19.40;72.20;;;;;;5085891;28;20056;-84
2023/08/09 10:13:04;;;;;;;3.97;2.05;;;19.30;71.70;;;;;;5071174;28;20535;-83
2023/08/09 10:15:40;;;;;;;4.57;1.95;;;19.40;74.00;;;;;;5069966;28;20486;-84
2023/08/09 10:18:10;;;;;;;2.15;1.40;;;19.30;73.90;;;;;;5068595;28;20485;-83
2023/08/09 10:20:47;;;;;;;1.95;1.73;;;19.20;75.70;;;;;;5070837;28;20039;-82
2023/08/09 10:23:23;;;;;;;4.05;2.38;;;18.90;77.10;;;;;;5070911;28;20378;-82
2023/08/09 10:25:50;;;;;;;3.65;2.65;;;18.60;81.60;;;;;;5068741;28;20046;-82
2023/08/09 10:28:17;;;;;;;6.03;2.50;;;18.50;87.50;;;;;;5068446;28;20120;-82
2023/08/09 10:30:54;;;;;;;2.67;2.13;;;18.70;93.70;;;;;;5069592;28;20602;-82
2023/08/09 10:33:19;;;;;;;2.75;2.05;;;18.60;93.60;;;;;;5074064;28;20103;-82
2023/08/09 10:35:52;;;;;;;4.18;2.13;;;18.70;93.60;;;;;;5056417;28;20072;-82
2023/08/09 10:38:39;;;;;;;4.35;2.60;;;18.80;93.70;;;;;;5070953;28;20070;-81
2023/08/09 10:41:12;;;;;;;6.28;2.80;;;18.70;84.60;;;;;;5070738;28;20050;-82
2023/08/09 10:43:38;;;;;;;5.78;2.70;;;18.80;86.00;;;;;;5071238;28;20021;-82
2023/08/09 10:46:23;;;;;;;4.43;2.75;;;18.80;84.30;;;;;;5069023;28;20745;-82
2023/08/09 10:48:53;;;;;;;7.40;3.10;;;18.80;84.70;;;;;;5070288;28;20025;-82
2023/08/09 10:51:23;;;;;;;2.80;2.40;;;18.80;81.60;;;;;;5070058;28;20366;-82
2023/08/09 10:54:00;;;;;;;5.13;2.90;;;19.20;85.30;;;;;;5069756;28;20046;-82
2023/08/09 10:56:34;;;;;;;2.92;1.83;;;19.10;81.50;;;;;;5070875;28;20466;-83
2023/08/09 10:59:08;;;;;;;2.65;1.88;;;19.30;84.60;;;;;;5060020;28;20031;-83
2023/08/09 11:01:35;;;;;;;5.32;2.15;;;19.00;83.90;;;;;;5071447;28;20032;-83
2023/08/09 11:04:04;;;;;;;5.50;2.47;;;18.90;83.20;;;;;;5072685;28;20119;-83
2023/08/09 11:06:37;;;;;;;3.00;2.15;;;18.80;84.80;;;;;;5072769;28;20044;-83
2023/08/09 11:09:08;;;;;;;3.97;2.33;;;18.60;81.80;;;;;;5071887;28;20092;-84
2023/08/09 11:11:34;;;;;;;7.38;2.83;;;18.50;80.80;;;;;;5071612;28;20013;-83
2023/08/09 11:14:02;;;;;;;3.20;2.33;;;18.40;82.30;;;;;;5071336;28;20071;-83
2023/08/09 11:16:27;;;;;;;6.15;3.25;;;18.50;87.10;;;;;;5071267;28;20103;-83
2023/08/09 11:18:59;;;;;;;4.75;2.55;;;18.50;90.40;;;;;;5072660;28;20021;-83
2023/08/09 11:21:25;;;;;;;2.58;1.73;;;18.40;93.20;;;;;;5071407;28;20029;-83
2023/08/09 11:23:59;;;;;;;5.43;2.40;;;18.40;97.60;;;;;;5071391;28;20012;-83
2023/08/09 11:26:25;;;;;;;3.08;2.25;;;18.50;99.90;;;;;;5070981;28;20016;-83
2023/08/09 11:28:51;;;;;;;2.55;2.15;;;18.60;99.90;;;;;;5072714;28;20024;-83
2023/08/09 11:31:16;;;;;;;2.50;2.30;;;18.50;99.90;;;;;;5072539;28;20114;-83
2023/08/09 11:33:42;;;;;;;2.92;2.60;;;18.30;99.90;;;;;;5072529;28;20078;-82
2023/08/09 11:36:08;;;;;;;5.53;2.13;;;18.20;99.90;;;;;;5071486;28;20032;-83
2023/08/09 11:38:34;;;;;;;2.97;2.63;;;18.00;99.90;;;;;;5073707;28;20059;-83
2023/08/09 11:41:00;;;;;;;4.35;2.83;;;17.90;99.90;;;;;;5071771;28;20025;-83
2023/08/09 11:43:26;;;;;;;6.13;3.90;;;17.50;99.90;;;;;;5072480;28;20032;-82
2023/08/09 11:45:54;;;;;;;4.72;3.58;;;17.20;99.90;;;;;;5071475;28;20025;-83
2023/08/09 11:48:39;;;;;;;5.53;3.55;;;17.00;99.90;;;;;;5072944;28;20025;-82
2023/08/09 11:51:12;;;;;;;6.20;3.80;;;16.90;99.90;;;;;;5076795;28;20103;-82
2023/08/09 11:53:39;;;;;;;7.43;4.32;;;17.00;99.90;;;;;;5075250;28;20032;-81
2023/08/09 11:56:07;;;;;;;7.00;5.25;;;17.20;99.90;;;;;;5075333;28;20452;-82
2023/08/09 11:58:34;;;;;;;6.20;4.65;;;17.20;99.90;;;;;;5076039;28;20051;-82
2023/08/09 12:01:10;;;;;;;5.70;4.47;;;17.30;99.90;;;;;;5075308;28;20103;-83
2023/08/09 12:03:38;;;;;;;7.20;4.78;;;17.50;99.90;;;;;;5074661;28;20016;-82
2023/08/09 12:06:04;;;;;;;8.00;3.75;;;17.70;99.90;;;;;;5074645;28;20421;-82
2023/08/09 12:08:34;;;;;;;4.13;3.38;;;17.90;99.90;;;;;;5078570;28;20070;-83
2023/08/09 12:11:00;;;;;;;3.72;3.15;;;17.80;99.90;;;;;;5075372;28;20486;-83
2023/08/09 12:13:26;;;;;;;6.40;3.45;;;18.10;99.90;;;;;;5076216;28;20027;-83
2023/08/09 12:15:51;;;;;;;5.95;2.67;;;18.20;99.90;;;;;;5075800;28;20467;-83
2023/08/09 12:18:17;;;;;;;3.95;3.13;;;18.40;99.90;;;;;;5063146;28;20058;-83
2023/08/09 12:20:43;;;;;;;5.13;3.10;;;18.60;99.90;;;;;;5074554;28;20359;-83
2023/08/09 12:23:08;;;;;;;3.65;3.03;;;18.60;99.90;;;;;;5075699;28;20027;-83
2023/08/09 12:25:34;;;;;;;4.63;3.45;;;18.70;99.90;;;;;;5074873;28;20031;-83
2023/08/09 12:27:59;;;;;;;4.80;2.75;;;18.70;99.90;;;;;;5074152;28;20024;-83
2023/08/09 12:30:25;;;;;;;5.95;3.00;;;18.60;99.90;;;;;;5075764;28;20032;-82
2023/08/09 12:32:51;;;;;;;4.68;3.33;;;18.60;99.90;;;;;;5074404;28;20072;-82
2023/08/09 12:35:16;;;;;;;3.60;2.83;;;18.60;99.90;;;;;;5080181;28;20029;-82
2023/08/09 12:37:42;;;;;;;4.05;3.25;;;18.60;99.90;;;;;;5075856;28;20024;-83
2023/08/09 12:40:09;;;;;;;3.70;3.22;;;18.50;99.90;;;;;;5074526;28;20031;-83
2023/08/09 12:42:35;;;;;;;5.30;2.70;;;18.40;99.90;;;;;;5075474;28;20028;-83
2023/08/09 12:45:00;;;;;;;3.00;2.72;;;18.20;99.90;;;;;;5075644;28;20021;-82